ENAL

Details ICAO ENAL (AES)
Name Alesund
Region Norway
Timezone Europe/Oslo (UTC+1.0)
Plans Departing 154
Arriving 150
Stats Elevation 67 ft / 20 m (AMSL)
Location 62.560400° 6.109990°
Runways 1
Magnetic Variation 1.356° E
Sunrise 2018-12-18 09:05:19 UTC / 2018-12-18 10:05:19 Local
Sunset 2018-12-18 14:01:28 UTC / 2018-12-18 15:01:28 Local
Advertisement - Login to hide

Runways

ID Width Length Bearing (true/mag) Surface Threshold Overrun Markings Lighting
07 142 ft / 43 m 7,604 ft / 2,318 m 64.82° / 63.46° ASPHALT 492 ft / 150 m 0 ft / 0 m PREC-APP EDGE THRESHOLD MALSF
25 142 ft / 43 m 7,604 ft / 2,318 m 244.86° / 243.50° ASPHALT 751 ft / 229 m 0 ft / 0 m PREC-APP EDGE THRESHOLD MALSF

Approach Navaids

Runway Type Ident Frequency Range Bearing (true/mag) Slope Elevation
25 GS VGR 111.95 MHz 10 nm / 19 km 245.22° / 243.86° 3.00° 18 ft / 5 m (AMSL)
25 LOC-ILS VGR 111.95 MHz 18 nm / 33 km 244.61° / 243.25° - 72 ft / 22 m (AMSL)

Map

Weather


0- 5 10 15 20 25 30 35+ Temperature / °C

Clouds and Precipitation
Forecast for 2018-12-18 12:00 UTC. Updated 6 hours ago

Ground ~20,000 ft ~40,000 ft Winds

METAR

ENAL 181450Z 15011KT CAVOK 03/M04 Q1014

TAF

Not found

Frequencies

Tower 118.10 MHz Vigra Tower
Recorded 128.65 MHz Vigra ATIS
Warning: Do not use this data for real-world aviation or navigation. No guarantee of current accuracy is given.